Time;durP1;ratioP1;P1;durP2;ratioP2;P2;SDS_P1;SDS_P2;PMS_P1;PMS_P2;Temp;Humidity;BMP_temperature;BMP_pressure;BME280_temperature;BME280_humidity;BME280_pressure;Samples;Min_cycle;Max_cycle;Signal;HPM_P1;HPM_P2
2023/03/22 00:01:21;;;;;;;31.15;18.13;;;;;;;-144.73;100.00;54596.53;5008043;28;20108;-77
2023/03/22 00:03:47;;;;;;;28.65;16.35;;;;;;;-144.73;100.00;54604.75;5015794;28;20029;-76
2023/03/22 00:06:13;;;;;;;29.45;17.55;;;;;;;-144.73;100.00;54596.53;5018964;28;20095;-77
2023/03/22 00:08:39;;;;;;;28.75;16.25;;;;;;;-144.73;100.00;54596.53;5022667;28;20502;-77
2023/03/22 00:11:05;;;;;;;28.98;17.58;;;;;;;-144.73;100.00;54563.69;5018341;28;20021;-77
2023/03/22 00:13:37;;;;;;;33.33;17.38;;;;;;;-144.73;100.00;54596.53;5024019;28;20030;-77
2023/03/22 00:16:02;;;;;;;;;;;;;;;-144.73;100.00;54604.75;5030447;28;20108;-77
2023/03/22 00:18:28;;;;;;;32.22;17.90;;;;;;;-144.73;100.00;54596.53;5014597;28;19999;-77
2023/03/22 00:20:56;;;;;;;33.88;19.00;;;;;;;-144.73;100.00;54617.06;5025340;28;20100;-77
2023/03/22 00:23:26;;;;;;;28.02;17.58;;;;;;;-144.73;100.00;54600.63;5016703;28;20038;-77
2023/03/22 00:25:54;;;;;;;35.85;17.52;;;;;;;-144.73;100.00;54637.59;5032713;28;20044;-77
2023/03/22 00:28:20;;;;;;;32.45;19.23;;;;;;;-144.73;100.00;54627.31;5017778;28;20072;-78
2023/03/22 00:30:58;;;;;;;36.60;19.13;;;;;;;-144.73;100.00;54582.16;5018106;28;20029;-77
2023/03/22 00:33:24;;;;;;;33.90;18.65;;;;;;;-144.73;100.00;54588.31;5025945;28;20042;-77
2023/03/22 00:35:57;;;;;;;34.92;17.05;;;;;;;-144.73;100.00;54633.47;5017612;28;20052;-77
2023/03/22 00:38:22;;;;;;;43.00;18.52;;;;;;;-144.73;100.00;54571.91;5033462;28;20033;-77
2023/03/22 00:40:48;;;;;;;40.85;20.10;;;;;;;-144.73;100.00;54596.53;5023389;28;20040;-77
2023/03/22 00:43:15;;;;;;;34.97;19.33;;;;;;;-144.73;100.00;54596.53;5010214;28;20037;-77
2023/03/22 00:45:41;;;;;;;35.05;20.60;;;;;;;-144.73;100.00;54598.59;5027039;28;20100;-77
2023/03/22 00:48:10;;;;;;;32.65;19.58;;;;;;;-144.73;100.00;54588.31;5007532;28;20030;-77
2023/03/22 00:50:40;;;;;;;31.65;18.20;;;;;;;-144.73;100.00;54625.28;5016883;28;20026;-77
2023/03/22 00:53:05;;;;;;;33.47;19.40;;;;;;;-144.73;100.00;54592.44;5021806;28;20044;-77
2023/03/22 00:55:31;;;;;;;34.58;18.73;;;;;;;-144.73;100.00;54617.06;5020101;28;20057;-77
2023/03/22 00:57:57;;;;;;;29.73;18.08;;;;;;;-144.73;100.00;54606.78;5016504;28;20022;-77
2023/03/22 01:00:23;;;;;;;36.75;20.27;;;;;;;-144.73;100.00;54610.91;5025150;28;20025;-77
2023/03/22 01:02:52;;;;;;;46.22;18.92;;;;;;;-144.73;100.00;54584.22;5018769;28;20033;-77
2023/03/22 01:05:20;;;;;;;35.42;20.52;;;;;;;-144.73;100.00;54596.53;5014772;28;20148;-77
2023/03/22 01:07:49;;;;;;;37.13;21.15;;;;;;;-144.73;100.00;54606.78;5025202;28;20036;-77
2023/03/22 01:10:15;;;;;;;29.73;20.13;;;;;;;-144.73;100.00;54629.38;5030222;28;20029;-78
2023/03/22 01:12:40;;;;;;;36.80;20.98;;;;;;;-144.73;100.00;54612.97;5017202;28;20034;-77
2023/03/22 01:15:06;;;;;;;37.90;22.70;;;;;;;-144.73;100.00;54604.75;5031254;28;20036;-77
2023/03/22 01:17:32;;;;;;;31.80;20.38;;;;;;;-144.73;100.00;54584.22;5023132;28;20029;-75
2023/03/22 01:19:57;;;;;;;40.05;22.20;;;;;;;-144.73;100.00;54604.75;5024026;28;20037;-76
2023/03/22 01:22:23;;;;;;;37.13;21.23;;;;;;;-144.73;100.00;54600.63;5030716;28;20048;-76
2023/03/22 01:24:49;;;;;;;37.60;20.67;;;;;;;-144.73;100.00;54592.44;5010879;28;20076;-76
2023/03/22 01:27:14;;;;;;;47.10;21.83;;;;;;;-144.73;100.00;54596.53;5038627;28;20033;-76
2023/03/22 01:29:40;;;;;;;32.47;21.98;;;;;;;-144.73;100.00;54608.84;5041181;28;20044;-76
2023/03/22 01:32:05;;;;;;;39.28;22.95;;;;;;;-144.73;100.00;54625.28;5040701;28;20112;-76
2023/03/22 01:34:31;;;;;;;37.58;21.13;;;;;;;-144.73;100.00;54629.38;5049755;28;20028;-76
2023/03/22 01:36:56;;;;;;;34.55;21.98;;;;;;;-144.73;100.00;54619.13;5006687;28;20021;-76
2023/03/22 01:39:21;;;;;;;36.90;21.33;;;;;;;-144.73;100.00;54592.44;5017146;28;20459;-76
2023/03/22 01:41:47;;;;;;;35.08;23.13;;;;;;;-144.73;100.00;54592.44;5023656;28;20018;-76
2023/03/22 01:44:21;;;;;;;39.35;21.48;;;;;;;-144.73;100.00;54576.00;5037683;28;20059;-76
2023/03/22 01:46:49;;;;;;;37.72;22.42;;;;;;;-144.73;100.00;54596.53;5016607;28;20022;-76
2023/03/22 01:49:21;;;;;;;39.63;21.02;;;;;;;-144.73;100.00;54590.38;5006774;28;20076;-76
2023/03/22 01:51:50;;;;;;;44.10;23.52;;;;;;;-144.73;100.00;54582.16;5015675;28;20197;-76
2023/03/22 01:54:29;;;;;;;40.10;23.75;;;;;;;-144.73;100.00;54584.22;5022974;28;20048;-76
2023/03/22 01:56:54;;;;;;;32.30;21.52;;;;;;;-144.73;100.00;54639.63;5026715;28;20373;-76
2023/03/22 01:59:21;;;;;;;37.45;21.02;;;;;;;-144.73;100.00;54629.38;5027123;28;20037;-76
2023/03/22 02:01:46;;;;;;;40.22;22.10;;;;;;;-144.73;100.00;54615.00;5015287;28;20053;-76
2023/03/22 02:04:18;;;;;;;38.03;22.92;;;;;;;-144.73;100.00;54604.75;5019632;28;20461;-76
2023/03/22 02:06:45;;;;;;;40.67;22.20;;;;;;;-144.73;100.00;54612.97;5025375;28;20040;-77
2023/03/22 02:09:12;;;;;;;38.15;21.63;;;;;;;-144.73;100.00;54629.38;5019866;28;20040;-76
2023/03/22 02:12:16;;;;;;;43.08;22.67;;;;;;;-144.73;100.00;54563.69;5034477;28;20025;-76
2023/03/22 02:14:49;;;;;;;32.80;20.40;;;;;;;-144.73;100.00;54621.16;5032561;28;20038;-76
2023/03/22 02:17:43;;;;;;;36.70;20.88;;;;;;;-144.73;100.00;54604.75;5000096;28;20375;-76
2023/03/22 02:20:27;;;;;;;32.63;21.02;;;;;;;-144.73;100.00;54580.13;5045516;28;20025;-76
2023/03/22 02:22:52;;;;;;;37.83;22.05;;;;;;;-144.73;100.00;54662.22;5015378;28;20037;-77
2023/03/22 02:25:36;;;;;;;37.50;22.88;;;;;;;-144.73;100.00;54617.06;5015222;28;20033;-75
2023/03/22 02:28:34;;;;;;;41.00;23.33;;;;;;;-144.73;100.00;54617.06;5024220;28;20037;-76
2023/03/22 02:31:30;;;;;;;38.67;23.38;;;;;;;-144.73;100.00;54571.91;5014769;28;20061;-75
2023/03/22 02:34:14;;;;;;;41.13;25.77;;;;;;;-144.73;100.00;54602.69;5031303;28;20056;-75
2023/03/22 02:37:02;;;;;;;30.25;20.48;;;;;;;-144.73;100.00;54608.84;5015662;28;20532;-75
2023/03/22 02:39:35;;;;;;;41.50;24.08;;;;;;;-144.73;100.00;54571.91;5027110;28;20066;-75
2023/03/22 02:42:20;;;;;;;38.83;23.40;;;;;;;-144.73;100.00;54602.69;5043822;28;20087;-76
2023/03/22 02:45:00;;;;;;;37.55;23.48;;;;;;;-144.73;100.00;54584.22;5033757;28;20038;-76
2023/03/22 02:47:40;;;;;;;38.17;22.27;;;;;;;-144.73;100.00;54610.91;5017249;28;20049;-76
2023/03/22 02:50:19;;;;;;;42.38;22.02;;;;;;;-144.73;100.00;54621.16;5023503;28;20029;-76
2023/03/22 02:52:56;;;;;;;34.70;21.92;;;;;;;-144.73;100.00;54600.63;5049217;28;20029;-76
2023/03/22 02:55:37;;;;;;;34.47;21.70;;;;;;;-144.73;100.00;54559.59;5034223;28;20036;-76
2023/03/22 02:58:10;;;;;;;40.60;21.70;;;;;;;-144.73;100.00;54637.59;5009447;28;20122;-77
2023/03/22 03:00:37;;;;;;;41.03;22.67;;;;;;;-144.73;100.00;54580.13;5035735;28;20018;-77
2023/03/22 03:03:11;;;;;;;39.25;21.92;;;;;;;-144.73;100.00;54641.69;5009583;28;20036;-77
2023/03/22 03:05:43;;;;;;;32.65;20.60;;;;;;;-144.73;100.00;54617.06;5025560;28;20083;-76
2023/03/22 03:08:11;;;;;;;31.42;18.83;;;;;;;-144.73;100.00;54563.69;5009040;28;20194;-77
2023/03/22 03:10:39;;;;;;;31.70;20.13;;;;;;;-144.73;100.00;54637.59;5009852;28;20104;-77
2023/03/22 03:13:05;;;;;;;32.45;20.00;;;;;;;-144.73;100.00;54649.91;5005758;28;20037;-76
2023/03/22 03:15:31;;;;;;;37.90;19.75;;;;;;;-144.73;100.00;54629.38;5014270;28;20092;-76
2023/03/22 03:18:12;;;;;;;31.33;19.05;;;;;;;-144.73;100.00;54641.69;5012985;28;20044;-76
2023/03/22 03:20:53;;;;;;;31.88;20.05;;;;;;;-144.73;100.00;54600.63;5031196;28;20059;-76
2023/03/22 03:23:44;;;;;;;29.17;17.90;;;;;;;-144.73;100.00;54582.16;5045805;28;20045;-77
2023/03/22 03:26:34;;;;;;;30.23;19.23;;;;;;;-144.73;100.00;54631.44;5026388;28;20021;-77
2023/03/22 03:29:24;;;;;;;33.65;18.33;;;;;;;-144.73;100.00;54588.31;5038298;28;20033;-77
2023/03/22 03:31:56;;;;;;;36.17;17.92;;;;;;;-144.73;100.00;54617.06;4997403;28;20029;-76
2023/03/22 03:34:28;;;;;;;33.05;18.00;;;;;;;-144.73;100.00;54571.91;5021263;28;20505;-76
2023/03/22 03:37:16;;;;;;;29.45;17.45;;;;;;;-144.73;100.00;54588.31;5015914;28;20028;-77
2023/03/22 03:39:50;;;;;;;32.38;17.85;;;;;;;-144.73;100.00;54571.91;5013771;28;20041;-77
2023/03/22 03:42:17;;;;;;;28.50;18.13;;;;;;;-144.73;100.00;54617.06;5021418;28;20022;-77
2023/03/22 03:44:44;;;;;;;33.55;18.08;;;;;;;-144.73;100.00;54608.84;5038837;28;20121;-77
2023/03/22 03:47:10;;;;;;;27.55;17.95;;;;;;;-144.73;100.00;54625.28;4996787;28;20026;-77
2023/03/22 03:49:36;;;;;;;35.08;19.35;;;;;;;-144.73;100.00;54600.63;5027468;28;20071;-77
2023/03/22 03:52:03;;;;;;;30.17;17.70;;;;;;;-144.73;100.00;54617.06;5013090;28;20013;-77
2023/03/22 03:54:28;;;;;;;34.42;17.95;;;;;;;-144.73;100.00;54596.53;5039457;28;20093;-77
2023/03/22 03:56:54;;;;;;;28.50;16.85;;;;;;;-144.73;100.00;54604.75;5022283;28;20509;-77
2023/03/22 03:59:22;;;;;;;33.10;15.18;;;;;;;-144.73;100.00;54662.22;5021479;28;20398;-77
2023/03/22 04:01:51;;;;;;;31.15;16.27;;;;;;;-144.73;100.00;54600.63;5013950;28;20108;-77
2023/03/22 04:04:25;;;;;;;28.20;14.38;;;;;;;-144.73;100.00;54608.84;5024119;28;20040;-77
2023/03/22 04:06:52;;;;;;;25.40;13.40;;;;;;;-144.73;99.89;54606.78;5023909;28;20021;-77
2023/03/22 04:09:18;;;;;;;23.98;12.93;;;;;;;-144.73;98.13;54584.22;5026653;28;20036;-77
2023/03/22 04:11:44;;;;;;;29.73;14.40;;;;;;;-144.73;98.66;54608.84;5025051;28;20025;-77
2023/03/22 04:14:09;;;;;;;26.30;13.00;;;;;;;-144.73;97.82;54602.69;5021158;28;20123;-75
2023/03/22 04:16:34;;;;;;;26.38;12.00;;;;;;;-144.73;97.31;54596.53;5014423;28;20038;-75
2023/03/22 04:19:00;;;;;;;26.73;13.57;;;;;;;-144.73;97.93;54567.81;5031166;28;20033;-75
2023/03/22 04:21:25;;;;;;;21.38;13.27;;;;;;;-144.73;97.06;54600.63;5014383;28;20532;-75
2023/03/22 04:23:50;;;;;;;21.55;13.23;;;;;;;-144.73;96.91;54608.84;5013033;28;20038;-75
2023/03/22 04:26:16;;;;;;;27.02;12.90;;;;;;;-144.73;97.54;54612.97;5014105;28;20021;-75
2023/03/22 04:28:41;;;;;;;26.23;12.60;;;;;;;-144.73;97.19;54578.06;5013631;28;20080;-75
2023/03/22 04:31:07;;;;;;;19.70;12.27;;;;;;;-144.73;97.14;54631.44;5013600;28;20030;-75
2023/03/22 04:33:38;;;;;;;29.60;12.40;;;;;;;-144.73;96.54;54645.78;5031087;28;20033;-74
2023/03/22 04:36:05;;;;;;;25.10;12.40;;;;;;;-144.73;96.32;54576.00;5013383;28;20112;-74
2023/03/22 04:38:31;;;;;;;24.17;12.13;;;;;;;-144.73;95.97;54604.75;5012667;28;20033;-74
2023/03/22 04:40:57;;;;;;;30.23;13.18;;;;;;;-144.73;95.69;54573.97;5013641;28;20032;-74
2023/03/22 04:43:22;;;;;;;28.10;13.45;;;;;;;-144.73;96.17;54600.63;5030386;28;20029;-74
2023/03/22 04:45:48;;;;;;;22.85;11.35;;;;;;;-144.73;96.35;54571.91;5013439;28;20029;-74
2023/03/22 04:48:13;;;;;;;18.52;11.43;;;;;;;-144.73;96.48;54612.97;5012816;28;20030;-74
2023/03/22 04:50:39;;;;;;;21.67;10.75;;;;;;;-144.73;95.95;54649.91;5013044;28;20026;-74
2023/03/22 04:53:06;;;;;;;24.95;12.48;;;;;;;-144.73;95.76;54623.22;5030909;28;20041;-74
2023/03/22 04:55:33;;;;;;;25.13;12.52;;;;;;;-144.73;96.03;54598.59;5013284;28;20028;-74
2023/03/22 04:57:58;;;;;;;23.80;12.55;;;;;;;-144.73;95.51;54596.53;5030501;28;20168;-74
2023/03/22 05:00:23;;;;;;;26.27;11.35;;;;;;;-144.73;95.40;54588.31;5030348;28;20442;-74
2023/03/22 05:02:49;;;;;;;19.58;11.55;;;;;;;-144.73;96.10;54588.31;5013003;28;20111;-74
2023/03/22 05:05:15;;;;;;;26.77;11.85;;;;;;;-144.73;95.72;54612.97;5030576;28;20022;-73
2023/03/22 05:07:40;;;;;;;21.23;12.82;;;;;;;-144.73;95.83;54608.84;5012604;28;20029;-73
2023/03/22 05:10:06;;;;;;;24.17;12.68;;;;;;;-144.73;96.20;54576.00;5012962;28;20053;-74
2023/03/22 05:12:31;;;;;;;22.45;11.68;;;;;;;-144.73;97.44;54612.97;5013623;28;20117;-73
2023/03/22 05:14:56;;;;;;;21.73;11.90;;;;;;;-144.73;96.93;54602.69;5034254;28;20067;-74
2023/03/22 05:17:22;;;;;;;23.60;11.38;;;;;;;-144.73;96.42;54594.47;5015809;28;20037;-74
2023/03/22 05:19:47;;;;;;;23.73;12.00;;;;;;;-144.73;96.12;54600.63;5016472;28;20048;-74
2023/03/22 05:22:12;;;;;;;31.83;12.25;;;;;;;-144.73;96.97;54649.91;5016281;28;20036;-73
2023/03/22 05:24:38;;;;;;;21.98;11.40;;;;;;;-144.73;96.63;54621.16;5016241;28;20409;-74
2023/03/22 05:27:04;;;;;;;22.17;12.05;;;;;;;-144.73;96.15;54563.69;5016149;28;20029;-74
2023/03/22 05:29:35;;;;;;;22.58;12.68;;;;;;;-144.73;96.86;54629.38;5016790;28;20053;-74
2023/03/22 05:32:02;;;;;;;26.63;11.57;;;;;;;-144.73;96.49;54592.44;5016008;28;20087;-75
2023/03/22 05:34:34;;;;;;;20.50;12.45;;;;;;;-144.73;96.86;54580.13;5034443;28;20125;-75
2023/03/22 05:37:00;;;;;;;;;;;;;;;-144.73;96.40;54576.00;5017057;28;20171;-74
2023/03/22 05:39:25;;;;;;;25.73;12.32;;;;;;;-144.73;96.56;54580.13;5015592;28;20422;-74
2023/03/22 05:41:50;;;;;;;26.58;12.82;;;;;;;-144.73;96.35;54612.97;5016066;28;20034;-74
2023/03/22 05:44:15;;;;;;;24.27;12.40;;;;;;;-144.73;96.27;54617.06;5015517;28;20042;-74
2023/03/22 05:46:41;;;;;;;20.75;10.57;;;;;;;-144.73;95.90;54600.63;5016457;28;20029;-74
2023/03/22 05:49:06;;;;;;;30.20;12.70;;;;;;;-144.73;95.90;54571.91;5015639;28;20033;-74
2023/03/22 05:51:31;;;;;;;30.88;11.40;;;;;;;-144.73;95.90;54604.75;5016071;28;20029;-74
2023/03/22 05:53:57;;;;;;;20.02;10.55;;;;;;;-144.73;95.62;54604.75;5015071;28;20033;-74
2023/03/22 05:56:23;;;;;;;20.85;10.63;;;;;;;-144.73;95.55;54559.59;5016380;28;20033;-74
2023/03/22 05:58:48;;;;;;;21.95;10.40;;;;;;;-144.73;95.74;54621.16;5033230;28;20033;-74
2023/03/22 06:01:15;;;;;;;23.38;11.38;;;;;;;-144.73;94.97;54592.44;5033410;28;20072;-74
2023/03/22 06:03:41;;;;;;;22.10;10.80;;;;;;;-144.73;94.89;54629.38;5015462;28;20037;-74
2023/03/22 06:06:09;;;;;;;20.27;10.43;;;;;;;-144.73;94.70;54580.13;5016317;28;20076;-74
2023/03/22 06:08:38;;;;;;;25.15;10.23;;;;;;;-144.73;95.31;54604.75;5033189;28;20034;-74
2023/03/22 06:11:04;;;;;;;19.77;10.23;;;;;;;-144.73;94.55;54615.00;5015587;28;20033;-74
2023/03/22 06:13:30;;;;;;;20.98;9.10;;;;;;;-144.73;93.97;54617.06;5015080;28;20041;-74
2023/03/22 06:15:58;;;;;;;22.48;9.57;;;;;;;-144.73;94.64;54596.53;5016206;28;20076;-75
2023/03/22 06:18:24;;;;;;;23.35;8.80;;;;;;;-144.73;94.21;54567.81;5015111;28;20483;-73
2023/03/22 06:20:49;;;;;;;15.30;9.23;;;;;;;-144.73;93.88;54623.22;5015827;28;20112;-73
2023/03/22 06:23:21;;;;;;;21.23;10.05;;;;;;;-144.73;93.44;54580.13;5014968;28;20038;-76
2023/03/22 06:25:46;;;;;;;25.30;10.27;;;;;;;-144.73;93.73;54621.16;5016152;28;20033;-74
2023/03/22 06:28:12;;;;;;;23.30;10.63;;;;;;;-144.73;93.85;54621.16;5014889;28;20036;-75
2023/03/22 06:30:37;;;;;;;22.30;9.20;;;;;;;-144.73;93.52;54604.75;5015184;28;20025;-73
2023/03/22 06:33:06;;;;;;;23.42;9.70;;;;;;;-144.73;94.10;54633.47;5014569;28;20041;-73
2023/03/22 06:35:32;;;;;;;20.15;9.70;;;;;;;-144.73;93.50;54612.97;5014702;28;20022;-74
2023/03/22 06:37:58;;;;;;;19.88;9.63;;;;;;;-144.73;94.02;54625.28;5014721;28;20034;-74
2023/03/22 06:40:24;;;;;;;20.70;9.20;;;;;;;-144.73;93.80;54592.44;5014801;28;20022;-73
2023/03/22 06:42:49;;;;;;;29.23;9.98;;;;;;;-144.73;93.50;54567.81;5014303;28;20033;-74
2023/03/22 06:45:15;;;;;;;20.98;10.25;;;;;;;-144.73;93.39;54582.16;5014775;28;20112;-74
2023/03/22 06:47:44;;;;;;;25.65;9.32;;;;;;;-144.73;93.18;54625.28;5014404;28;20068;-74
2023/03/22 06:50:09;;;;;;;30.73;11.13;;;;;;;-144.73;92.79;54608.84;5014113;28;20025;-74
2023/03/22 06:52:35;;;;;;;37.20;10.32;;;;;;;-144.73;93.71;54584.22;5014018;28;20129;-74
2023/03/22 06:55:01;;;;;;;19.85;9.15;;;;;;;-144.73;93.02;54588.31;5015356;28;20074;-73
2023/03/22 06:57:26;;;;;;;27.48;10.32;;;;;;;-144.73;93.73;54563.69;5014383;28;20100;-74
2023/03/22 06:59:51;;;;;;;29.55;9.57;;;;;;;-144.73;93.45;54604.75;5014955;28;20025;-75
2023/03/22 07:02:17;;;;;;;22.48;9.35;;;;;;;-144.73;93.51;54608.84;5031983;28;20025;-73
2023/03/22 07:04:44;;;;;;;23.15;10.38;;;;;;;-144.73;93.55;54596.53;5032072;28;20037;-73
2023/03/22 07:07:10;;;;;;;26.67;10.88;;;;;;;-144.73;94.13;54612.97;5014082;28;20029;-73
2023/03/22 07:09:35;;;;;;;19.30;9.18;;;;;;;-144.73;94.71;54615.00;5014438;28;20044;-73
2023/03/22 07:12:00;;;;;;;25.20;9.57;;;;;;;-144.73;94.12;54612.97;5013644;28;20029;-73
2023/03/22 07:14:27;;;;;;;25.30;10.15;;;;;;;-144.73;94.43;54625.28;5014443;28;20026;-73
2023/03/22 07:16:52;;;;;;;22.95;9.73;;;;;;;-144.73;94.15;54621.16;5014586;28;20040;-73
2023/03/22 07:19:17;;;;;;;25.55;9.63;;;;;;;-144.73;93.85;54608.84;5013689;28;20038;-73
2023/03/22 07:21:43;;;;;;;25.35;10.10;;;;;;;-144.73;93.87;54625.28;5014360;28;20036;-72
2023/03/22 07:24:10;;;;;;;18.45;10.35;;;;;;;-144.73;94.37;54604.75;5013224;28;20506;-73
2023/03/22 07:26:37;;;;;;;24.27;10.60;;;;;;;-144.73;94.52;54559.59;5014403;28;20367;-72
2023/03/22 07:29:02;;;;;;;21.92;10.48;;;;;;;-144.73;94.91;54563.69;5031148;28;20124;-74
2023/03/22 07:31:28;;;;;;;16.77;9.55;;;;;;;-144.73;94.55;54588.31;5012865;28;20097;-68
2023/03/22 07:33:53;;;;;;;23.17;9.38;;;;;;;-144.73;94.83;54592.44;5012749;28;20091;-68
2023/03/22 07:36:22;;;;;;;19.45;10.07;;;;;;;-144.73;94.65;54567.81;5012399;28;20128;-68
2023/03/22 07:38:49;;;;;;;26.55;10.60;;;;;;;-144.73;94.81;54588.31;5012512;28;20092;-69
2023/03/22 07:41:14;;;;;;;25.20;8.82;;;;;;;-144.73;94.70;54602.69;5015729;28;20036;-68
2023/03/22 07:43:40;;;;;;;21.13;9.77;;;;;;;-144.73;95.01;54633.47;5018525;28;20033;-68
2023/03/22 07:46:05;;;;;;;23.88;11.75;;;;;;;-144.73;94.56;54592.44;5011122;28;20029;-68
2023/03/22 07:48:31;;;;;;;20.85;11.20;;;;;;;-144.73;94.76;54637.59;5003456;28;20030;-69
2023/03/22 07:50:56;;;;;;;21.60;10.70;;;;;;;-144.73;94.56;54580.13;4999666;28;20033;-70
2023/03/22 07:53:22;;;;;;;18.33;11.45;;;;;;;-144.73;93.74;54576.00;5000611;28;20069;-69
2023/03/22 07:55:47;;;;;;;25.05;10.65;;;;;;;-144.73;94.05;54580.13;5013640;28;20025;-68
2023/03/22 07:58:13;;;;;;;18.83;11.52;;;;;;;-144.73;93.94;54588.31;5001985;28;20053;-69
2023/03/22 08:00:39;;;;;;;21.65;11.27;;;;;;;-144.73;94.09;54567.81;4989405;28;20022;-70
2023/03/22 08:03:05;;;;;;;22.55;12.73;;;;;;;-144.73;93.85;54629.38;4995274;28;20134;-68
2023/03/22 08:05:30;;;;;;;22.40;12.10;;;;;;;-144.73;93.93;54580.13;4994603;28;20017;-68
2023/03/22 08:07:55;;;;;;;22.38;12.68;;;;;;;-144.73;94.48;54617.06;5002866;28;20367;-68
2023/03/22 08:10:21;;;;;;;21.30;12.43;;;;;;;-144.73;94.93;54612.97;5024289;28;20132;-69
2023/03/22 08:12:46;;;;;;;28.38;14.50;;;;;;;-144.73;94.38;54600.63;5005502;28;20422;-68
2023/03/22 08:15:12;;;;;;;22.20;14.05;;;;;;;-144.73;94.79;54567.81;5001815;28;20041;-68
2023/03/22 08:17:37;;;;;;;25.35;13.68;;;;;;;-144.73;94.30;54584.22;5000125;28;20044;-68
2023/03/22 08:20:07;;;;;;;26.25;13.30;;;;;;;-144.73;93.76;54588.31;5009283;28;20025;-68
2023/03/22 08:22:34;;;;;;;23.73;13.95;;;;;;;-144.73;93.25;54590.38;4994866;28;20409;-69
2023/03/22 08:24:59;;;;;;;23.50;14.10;;;;;;;-144.73;93.50;54547.28;5003951;28;20509;-68
2023/03/22 08:27:25;;;;;;;28.75;14.07;;;;;;;-144.73;94.02;54584.22;5007503;28;20084;-68
2023/03/22 08:29:50;;;;;;;23.02;12.05;;;;;;;-144.73;93.85;54592.44;5015687;28;20045;-69
2023/03/22 08:32:16;;;;;;;30.77;14.27;;;;;;;-144.73;93.29;54592.44;5005698;28;20117;-69
2023/03/22 08:34:42;;;;;;;23.50;13.10;;;;;;;-144.73;92.20;54612.97;5015438;28;20084;-68
2023/03/22 08:37:09;;;;;;;32.83;14.07;;;;;;;-144.73;92.66;54567.81;5025207;28;20035;-69
2023/03/22 08:39:35;;;;;;;25.23;14.05;;;;;;;-144.73;92.76;54588.31;5007161;28;20114;-69
2023/03/22 08:42:01;;;;;;;25.08;15.38;;;;;;;-144.73;92.20;54586.28;5008927;28;20115;-68
2023/03/22 08:44:26;;;;;;;23.67;14.07;;;;;;;-144.73;92.34;54567.81;5005164;28;20037;-69
2023/03/22 08:46:52;;;;;;;26.92;14.27;;;;;;;-144.73;91.73;54600.63;4993098;28;20570;-69
2023/03/22 08:49:18;;;;;;;24.77;13.93;;;;;;;-144.73;91.41;54580.13;5025356;28;20038;-69
2023/03/22 08:51:43;;;;;;;22.55;13.75;;;;;;;-144.73;89.68;54608.84;5021741;28;20478;-69
2023/03/22 08:54:09;;;;;;;24.90;12.55;;;;;;;-144.73;89.57;54559.59;5003506;28;20124;-67
2023/03/22 08:56:36;;;;;;;23.48;12.77;;;;;;;-144.73;88.57;54588.31;5020079;28;20021;-68
2023/03/22 08:59:04;;;;;;;21.88;12.13;;;;;;;-144.73;87.21;54596.53;5000348;28;20094;-67
2023/03/22 09:01:29;;;;;;;25.70;12.57;;;;;;;-144.73;87.45;54567.81;4998836;28;20232;-68
2023/03/22 09:03:55;;;;;;;20.98;12.50;;;;;;;-144.73;87.20;54596.53;5002620;28;20033;-67
2023/03/22 09:06:20;;;;;;;25.75;11.52;;;;;;;-144.73;87.60;54588.31;5006236;28;20048;-67
2023/03/22 09:08:47;;;;;;;21.67;12.02;;;;;;;-144.73;87.09;54543.16;5005587;28;20033;-67
2023/03/22 09:11:13;;;;;;;21.45;11.52;;;;;;;-144.73;86.89;54561.63;5002450;28;20018;-67
2023/03/22 09:13:38;;;;;;;25.52;11.35;;;;;;;-144.73;86.40;54580.13;4996922;28;20036;-67
2023/03/22 09:16:05;;;;;;;22.98;11.32;;;;;;;-144.73;84.65;54576.00;5023189;28;20017;-67
2023/03/22 09:18:31;;;;;;;20.52;10.25;;;;;;;-144.73;84.55;54559.59;4995117;28;20116;-67
2023/03/22 09:20:56;;;;;;;37.85;10.05;;;;;;;-144.73;83.18;54576.00;4999286;28;20041;-67
2023/03/22 09:23:22;;;;;;;19.65;10.13;;;;;;;-144.73;82.41;54530.84;5000139;28;20076;-67
2023/03/22 09:25:48;;;;;;;23.25;10.30;;;;;;;-144.73;82.36;54584.22;5015860;28;20072;-68
2023/03/22 09:28:13;;;;;;;24.77;9.70;;;;;;;-144.73;83.10;54559.59;5016559;28;20049;-67
2023/03/22 09:30:39;;;;;;;18.83;9.50;;;;;;;-144.73;83.25;54600.63;5003652;28;20030;-68
2023/03/22 09:33:05;;;;;;;16.05;9.05;;;;;;;-144.73;81.49;54604.75;5012107;28;20038;-67
2023/03/22 09:35:31;;;;;;;21.02;8.57;;;;;;;-144.73;81.08;54584.22;5002034;28;20060;-67
2023/03/22 09:37:58;;;;;;;22.92;7.97;;;;;;;-144.73;80.77;54592.44;5001718;28;20061;-68
2023/03/22 09:40:29;;;;;;;18.17;8.18;;;;;;;-144.73;80.79;54588.31;5001167;28;20021;-67
2023/03/22 09:42:57;;;;;;;17.13;8.65;;;;;;;-144.73;81.66;54629.38;5003917;28;20033;-67
2023/03/22 09:45:34;;;;;;;16.60;8.70;;;;;;;-144.73;80.74;54592.44;5015745;28;20591;-68
2023/03/22 09:48:00;;;;;;;20.08;8.13;;;;;;;-144.73;81.88;54592.44;5025604;28;20045;-68
2023/03/22 09:50:29;;;;;;;21.35;7.68;;;;;;;-144.73;81.42;54576.00;4999969;28;20018;-67
2023/03/22 09:52:55;;;;;;;19.83;6.63;;;;;;;-144.73;80.37;54551.38;5024765;28;20115;-68
2023/03/22 09:55:53;;;;;;;22.52;7.85;;;;;;;-144.73;80.34;54600.63;5027987;28;20497;-68
2023/03/22 09:58:47;;;;;;;17.33;6.30;;;;;;;-144.73;79.94;54596.53;4988876;28;20112;-67
2023/03/22 10:01:50;;;;;;;15.45;6.60;;;;;;;-144.73;78.95;54580.13;5031063;28;20037;-68
2023/03/22 10:04:32;;;;;;;16.40;6.35;;;;;;;-144.73;78.53;54559.59;5026362;28;20043;-68
2023/03/22 10:07:22;;;;;;;12.90;5.43;;;;;;;-144.73;78.31;54576.00;5024946;28;20029;-68
2023/03/22 10:10:17;;;;;;;17.67;6.28;;;;;;;-144.73;77.76;54539.06;5024266;28;20136;-68
2023/03/22 10:12:49;;;;;;;15.07;5.30;;;;;;;-144.73;77.91;54547.28;5025218;28;20059;-67
2023/03/22 10:15:19;;;;;;;19.48;5.65;;;;;;;-144.73;77.42;54578.06;5011381;28;20028;-68
2023/03/22 10:17:52;;;;;;;14.82;5.03;;;;;;;-144.73;77.47;54584.22;5027379;28;20032;-68
2023/03/22 10:20:41;;;;;;;12.82;5.22;;;;;;;-144.73;77.15;54600.63;5036179;28;20025;-68
2023/03/22 10:23:15;;;;;;;13.38;5.18;;;;;;;-144.73;77.14;54584.22;5011406;28;20034;-68
2023/03/22 10:25:42;;;;;;;15.85;5.50;;;;;;;-144.73;77.68;54547.28;5011705;28;20025;-69
2023/03/22 10:28:37;;;;;;;12.52;5.60;;;;;;;-144.73;76.78;54571.91;5009810;28;20052;-68
2023/03/22 10:31:02;;;;;;;16.92;4.75;;;;;;;-144.73;77.19;54573.97;5028650;28;20013;-69
2023/03/22 10:33:38;;;;;;;13.65;4.57;;;;;;;-144.73;77.35;54563.69;5009056;28;20382;-68
2023/03/22 10:36:08;;;;;;;21.50;4.05;;;;;;;-144.73;77.29;54590.38;5018489;28;20067;-69
2023/03/22 10:38:41;;;;;;;14.82;4.60;;;;;;;-144.73;77.36;54592.44;4994730;28;20269;-68
2023/03/22 10:41:08;;;;;;;10.75;4.65;;;;;;;-144.73;77.93;54551.38;5003204;28;20502;-69
2023/03/22 10:43:36;;;;;;;14.95;4.47;;;;;;;-144.73;76.64;54547.28;5018787;28;20060;-69
2023/03/22 10:46:06;;;;;;;10.27;4.00;;;;;;;-144.73;76.74;54543.16;4999043;28;20026;-68
2023/03/22 10:48:39;;;;;;;16.00;4.97;;;;;;;-144.73;75.52;54580.13;5008514;28;20025;-69
2023/03/22 10:51:05;;;;;;;21.48;4.70;;;;;;;-144.73;75.05;54571.91;5000827;28;20085;-68
2023/03/22 10:53:39;;;;;;;18.23;4.15;;;;;;;-144.73;74.52;54543.16;4989991;28;20037;-67
2023/03/22 10:56:11;;;;;;;13.65;4.50;;;;;;;-144.73;73.69;54596.53;5011125;28;20022;-67
2023/03/22 10:58:37;;;;;;;12.35;3.75;;;;;;;-144.73;73.61;54588.31;4999937;28;20095;-67
2023/03/22 11:01:15;;;;;;;16.98;3.95;;;;;;;-144.73;73.42;54561.63;5021812;28;20049;-67
2023/03/22 11:03:48;;;;;;;20.75;4.15;;;;;;;-144.73;73.22;54596.53;5003468;28;20115;-67
2023/03/22 11:06:16;;;;;;;14.27;3.10;;;;;;;-144.73;72.41;54551.38;5009878;28;20025;-67
2023/03/22 11:09:00;;;;;;;17.33;3.63;;;;;;;-144.73;72.21;54541.13;5011002;28;20041;-67
2023/03/22 11:11:28;;;;;;;10.30;3.17;;;;;;;-144.73;70.75;54565.75;5009589;28;20033;-68